Sonderso, Denmark
Current Conditions -  °F | °C
As of 7:20 AM on Saturday 25 Oct 2014 (Local Time) from EKSB Reporting Station
Broken Clouds Broken Clouds  
Wind Chill: 52°   Ceiling: 700
Heat Index: 52°   Visibility: 5mi
Dew Point: 50°   Wind: 10mph
Humidity: 94%   Direction: 190°S
Pressure: 29.91"   Gusts: NA
Location:  55.49°N, 10.26°E
Report Text: EKSB 250520Z 19009KT 150V220 8000 BKN007 11/10 Q1013
Loading
Personal Weather Stations






























Interactive Weather Map New forecast layout! Learn more

10-Day Weather Forecast

Advertisements
Track Severe Weather on mobile